createdAt,value
2023-04-18T00:01:50.813Z,9.10
2023-04-18T00:04:19.246Z,9.10
2023-04-18T00:06:47.269Z,9.10
2023-04-18T00:09:14.064Z,9.10
2023-04-18T00:11:40.836Z,9.00
2023-04-18T00:16:36.246Z,9.00
2023-04-18T00:19:04.815Z,9.10
2023-04-18T00:21:32.140Z,9.00
2023-04-18T00:23:58.953Z,9.00
2023-04-18T00:26:27.200Z,9.00
2023-04-18T00:28:53.995Z,9.00
2023-04-18T00:31:21.186Z,9.00
2023-04-18T00:33:48.011Z,8.90
2023-04-18T00:36:15.320Z,8.80
2023-04-18T00:38:42.115Z,8.80
2023-04-18T00:41:08.934Z,8.90
2023-04-18T00:43:35.913Z,8.90
2023-04-18T00:46:02.839Z,8.90
2023-04-18T00:48:31.125Z,8.90
2023-04-18T00:50:58.193Z,8.90
2023-04-18T00:53:25.045Z,8.90
2023-04-18T00:55:51.877Z,8.90
2023-04-18T00:58:18.772Z,8.90
2023-04-18T01:00:45.851Z,8.90
2023-04-18T01:03:14.593Z,8.90
2023-04-18T01:05:41.587Z,8.90
2023-04-18T01:08:08.490Z,8.80
2023-04-18T01:10:35.903Z,8.80
2023-04-18T01:13:12.491Z,8.80
2023-04-18T01:15:43.724Z,8.90
2023-04-18T01:18:11.046Z,8.80
2023-04-18T01:20:42.525Z,8.80
2023-04-18T01:23:11.866Z,8.80
2023-04-18T01:25:39.196Z,8.80
2023-04-18T01:28:06.455Z,8.80
2023-04-18T01:30:34.241Z,8.80
2023-04-18T01:33:02.440Z,8.70
2023-04-18T01:35:29.323Z,8.70
2023-04-18T01:37:57.621Z,8.70
2023-04-18T01:40:24.485Z,8.60
2023-04-18T01:42:51.365Z,8.90
2023-04-18T01:45:19.357Z,8.70
2023-04-18T01:47:46.950Z,8.80
2023-04-18T01:50:13.840Z,8.80
2023-04-18T01:52:40.677Z,8.70
2023-04-18T01:55:07.825Z,8.70
2023-04-18T01:57:36.754Z,8.70
2023-04-18T02:00:07.692Z,8.70
2023-04-18T02:02:34.503Z,8.70
2023-04-18T02:05:01.471Z,8.70
2023-04-18T02:07:28.236Z,8.70
2023-04-18T02:09:55.247Z,8.70
2023-04-18T02:12:21.997Z,8.70
2023-04-18T02:14:51.715Z,8.70
2023-04-18T02:17:23.375Z,8.70
2023-04-18T02:19:53.437Z,8.70
2023-04-18T02:22:20.590Z,8.70
2023-04-18T02:24:47.431Z,8.70
2023-04-18T02:27:14.648Z,8.70
2023-04-18T02:29:41.366Z,8.70
2023-04-18T02:32:09.262Z,8.70
2023-04-18T02:34:36.626Z,8.70
2023-04-18T02:37:04.388Z,8.70
2023-04-18T02:39:31.549Z,8.70
2023-04-18T02:41:58.837Z,8.70
2023-04-18T02:44:25.612Z,8.70
2023-04-18T02:46:52.795Z,8.70
2023-04-18T02:49:19.860Z,8.70
2023-04-18T02:51:47.149Z,8.70
2023-04-18T02:54:14.211Z,8.70
2023-04-18T02:56:42.950Z,8.70
2023-04-18T02:59:09.737Z,8.70
2023-04-18T03:01:37.023Z,8.60
2023-04-18T03:04:03.946Z,8.60
2023-04-18T03:06:31.798Z,8.60
2023-04-18T03:08:58.664Z,8.60
2023-04-18T03:11:26.207Z,8.70
2023-04-18T03:13:53.833Z,8.60
2023-04-18T03:16:20.986Z,8.60
2023-04-18T03:18:47.874Z,8.60
2023-04-18T03:21:14.999Z,8.60
2023-04-18T03:23:41.788Z,8.60
2023-04-18T03:26:09.286Z,8.60
2023-04-18T03:28:36.146Z,8.60
2023-04-18T03:31:02.988Z,8.60
2023-04-18T03:33:29.831Z,8.60
2023-04-18T03:35:56.575Z,8.60
2023-04-18T03:38:24.541Z,8.60
2023-04-18T03:40:51.385Z,8.60
2023-04-18T03:43:20.392Z,8.60
2023-04-18T03:45:47.947Z,8.60
2023-04-18T03:48:14.766Z,8.60
2023-04-18T03:50:41.515Z,8.60
2023-04-18T03:53:08.291Z,8.60
2023-04-18T03:55:35.213Z,8.60
2023-04-18T03:58:02.462Z,8.60
2023-04-18T04:00:29.466Z,8.60
2023-04-18T04:02:56.831Z,8.60
2023-04-18T04:05:23.779Z,8.60
2023-04-18T04:07:51.065Z,8.40
2023-04-18T04:10:17.772Z,8.40
2023-04-18T04:12:44.518Z,8.30
2023-04-18T04:15:11.791Z,8.20
2023-04-18T04:17:38.650Z,8.20
2023-04-18T04:20:06.615Z,8.10
2023-04-18T04:22:34.714Z,8.10
2023-04-18T04:25:01.737Z,8.10
2023-04-18T04:27:28.972Z,8.10
2023-04-18T04:29:56.609Z,8.10
2023-04-18T04:32:25.187Z,8.10
2023-04-18T04:34:52.223Z,8.10
2023-04-18T04:37:19.085Z,8.10
2023-04-18T04:39:46.283Z,8.20
2023-04-18T04:42:13.655Z,8.30
2023-04-18T04:44:41.708Z,8.30
2023-04-18T04:47:08.644Z,8.30
2023-04-18T04:49:35.560Z,8.30
2023-04-18T04:52:05.430Z,8.30
2023-04-18T04:54:32.576Z,8.30
2023-04-18T04:56:59.340Z,8.40
2023-04-18T04:59:26.178Z,8.40
2023-04-18T05:01:53.134Z,8.30
2023-04-18T05:04:20.272Z,8.30
2023-04-18T05:06:47.353Z,8.30
2023-04-18T05:09:14.128Z,8.40
2023-04-18T05:11:40.897Z,8.40
2023-04-18T05:14:07.818Z,8.40
2023-04-18T05:16:35.876Z,8.40
2023-04-18T05:19:02.643Z,8.30
2023-04-18T05:21:29.887Z,8.40
2023-04-18T05:23:56.687Z,8.40
2023-04-18T05:26:23.544Z,8.40
2023-04-18T05:28:50.428Z,8.40
2023-04-18T05:31:17.230Z,8.40
2023-04-18T05:33:44.158Z,8.40
2023-04-18T05:36:11.003Z,8.40
2023-04-18T05:38:38.202Z,8.40
2023-04-18T05:41:05.091Z,8.40
2023-04-18T05:43:32.340Z,8.50
2023-04-18T05:45:59.146Z,8.50
2023-04-18T05:48:25.932Z,8.50
2023-04-18T05:50:52.800Z,8.50
2023-04-18T05:53:19.751Z,8.50
2023-04-18T05:55:48.698Z,8.50
2023-04-18T05:58:16.498Z,8.50
2023-04-18T06:00:43.414Z,8.50
2023-04-18T06:03:11.310Z,8.50
2023-04-18T06:05:38.696Z,8.50
2023-04-18T06:08:06.001Z,8.50
2023-04-18T06:10:33.130Z,8.50
2023-04-18T06:13:00.380Z,8.50
2023-04-18T06:15:27.160Z,8.50
2023-04-18T06:17:54.395Z,8.50
2023-04-18T06:20:23.207Z,8.50
2023-04-18T06:22:50.378Z,8.60
2023-04-18T06:25:17.214Z,8.60
2023-04-18T06:27:44.391Z,8.60
2023-04-18T06:30:11.331Z,8.60
2023-04-18T06:32:38.821Z,8.70
2023-04-18T06:35:06.264Z,8.70
2023-04-18T06:37:33.425Z,8.70
2023-04-18T06:40:00.217Z,8.70
2023-04-18T06:42:27.202Z,8.70
2023-04-18T06:44:53.970Z,8.70
2023-04-18T06:47:20.741Z,8.70
2023-04-18T06:49:48.274Z,8.80
2023-04-18T06:52:15.049Z,8.80
2023-04-18T06:54:42.182Z,8.90
2023-04-18T06:57:09.327Z,8.90
2023-04-18T06:59:37.406Z,8.90
2023-04-18T07:02:04.350Z,8.80
2023-04-18T07:04:31.307Z,8.80
2023-04-18T07:06:58.144Z,8.80
2023-04-18T07:09:25.300Z,8.80
2023-04-18T07:11:52.749Z,8.80
2023-04-18T07:14:22.670Z,8.80
2023-04-18T07:16:49.921Z,8.90
2023-04-18T07:19:17.009Z,9.00
2023-04-18T07:21:45.930Z,9.00
2023-04-18T07:24:13.182Z,9.10
2023-04-18T07:26:40.565Z,9.10
2023-04-18T07:29:07.399Z,9.20
2023-04-18T07:31:34.601Z,9.20
2023-04-18T07:34:01.475Z,9.20
2023-04-18T07:36:28.739Z,9.30
2023-04-18T07:38:55.567Z,9.20
2023-04-18T07:41:22.871Z,9.30
2023-04-18T07:43:49.677Z,9.20
2023-04-18T07:46:16.523Z,9.30
2023-04-18T07:48:43.410Z,9.40
2023-04-18T07:51:12.332Z,9.40
2023-04-18T07:53:41.188Z,9.40
2023-04-18T07:56:08.415Z,9.40
2023-04-18T07:58:35.301Z,9.50
2023-04-18T08:01:02.916Z,9.50
2023-04-18T08:03:30.321Z,9.60
2023-04-18T08:05:57.523Z,9.50
2023-04-18T08:08:28.629Z,9.60
2023-04-18T08:10:56.174Z,9.60
2023-04-18T08:13:27.012Z,9.70
2023-04-18T08:15:56.324Z,9.70
2023-04-18T08:18:23.296Z,9.80
2023-04-18T08:20:50.729Z,9.80
2023-04-18T08:23:17.590Z,9.90
2023-04-18T08:25:44.534Z,10.00
2023-04-18T08:28:11.318Z,10.10
2023-04-18T08:30:38.278Z,10.20
2023-04-18T08:33:05.305Z,10.20
2023-04-18T08:35:32.141Z,10.30
2023-04-18T08:38:00.915Z,10.40
2023-04-18T08:40:27.748Z,10.50
2023-04-18T08:42:54.693Z,10.50
2023-04-18T08:45:21.591Z,10.70
2023-04-18T08:47:48.865Z,10.70
2023-04-18T08:50:17.299Z,10.90
2023-04-18T08:52:50.158Z,11.00
2023-04-18T08:55:17.096Z,11.20
2023-04-18T08:57:44.000Z,11.30
2023-04-18T09:00:11.963Z,11.50
2023-04-18T09:02:43.410Z,11.60
2023-04-18T09:05:15.036Z,11.80
2023-04-18T09:07:42.073Z,11.90
2023-04-18T09:10:12.542Z,12.10
2023-04-18T09:12:50.312Z,12.20
2023-04-18T09:15:20.216Z,12.30
2023-04-18T09:17:51.374Z,12.40
2023-04-18T09:20:37.609Z,12.40
2023-04-18T09:23:14.572Z,12.40
2023-04-18T09:25:44.830Z,12.50
2023-04-18T09:28:33.813Z,12.40
2023-04-18T09:31:15.609Z,12.50
2023-04-18T09:33:54.160Z,12.60
2023-04-18T09:36:27.319Z,12.60
2023-04-18T09:38:56.597Z,12.70
2023-04-18T09:41:24.041Z,12.70
2023-04-18T09:44:08.045Z,12.60
2023-04-18T09:46:34.859Z,12.60
2023-04-18T09:49:01.950Z,12.50
2023-04-18T09:51:28.743Z,12.40
2023-04-18T09:53:55.492Z,12.40
2023-04-18T09:56:26.267Z,12.40
2023-04-18T09:58:57.920Z,12.50
2023-04-18T10:01:27.979Z,12.60
2023-04-18T10:03:54.808Z,12.60
2023-04-18T10:06:22.216Z,12.70
2023-04-18T10:08:49.359Z,12.80
2023-04-18T10:11:17.958Z,12.80
2023-04-18T10:13:47.396Z,12.90
2023-04-18T10:16:14.646Z,12.90
2023-04-18T10:18:42.552Z,13.00
2023-04-18T10:21:09.405Z,13.00
2023-04-18T10:23:37.834Z,13.10
2023-04-18T10:26:06.214Z,13.00
2023-04-18T10:28:53.475Z,13.00
2023-04-18T10:31:28.455Z,13.00
2023-04-18T10:36:28.763Z,13.20
2023-04-18T10:38:59.801Z,13.20
2023-04-18T10:41:28.633Z,13.30
2023-04-18T10:44:18.539Z,13.30
2023-04-18T10:46:48.582Z,13.40
2023-04-18T10:49:32.092Z,13.40
2023-04-18T10:52:00.902Z,13.50
2023-04-18T10:54:57.714Z,13.50
2023-04-18T10:57:31.648Z,13.50
2023-04-18T10:59:58.413Z,13.50
2023-04-18T11:02:30.537Z,13.60
2023-04-18T11:04:58.554Z,13.60
2023-04-18T11:07:45.037Z,13.70
2023-04-18T11:10:12.854Z,13.70
2023-04-18T11:12:40.553Z,13.80
2023-04-18T11:15:21.564Z,13.80
2023-04-18T11:18:01.025Z,13.80
2023-04-18T11:20:29.075Z,13.90
2023-04-18T11:22:56.193Z,13.90
2023-04-18T11:25:31.981Z,13.90
2023-04-18T11:27:59.772Z,13.90
2023-04-18T11:30:26.693Z,13.90
2023-04-18T11:32:54.360Z,13.90
2023-04-18T11:35:21.253Z,14.00
2023-04-18T11:37:50.203Z,13.90
2023-04-18T11:40:17.176Z,13.90
2023-04-18T11:42:44.046Z,13.90
2023-04-18T11:45:14.449Z,14.00
2023-04-18T11:47:43.315Z,14.00
2023-04-18T11:50:11.472Z,14.00
2023-04-18T11:52:39.952Z,13.90
2023-04-18T11:55:24.494Z,13.80
2023-04-18T11:57:56.090Z,13.80
2023-04-18T12:00:37.460Z,13.80
2023-04-18T12:03:13.973Z,13.80
2023-04-18T12:05:42.275Z,13.90
2023-04-18T12:08:13.338Z,14.00
2023-04-18T12:10:47.659Z,14.00
2023-04-18T12:13:14.555Z,14.00
2023-04-18T12:15:43.506Z,14.00
2023-04-18T12:18:12.236Z,14.10
2023-04-18T12:20:46.002Z,14.10
2023-04-18T12:23:31.624Z,14.10
2023-04-18T12:26:01.979Z,14.10
2023-04-18T12:28:29.490Z,14.10
2023-04-18T12:30:56.361Z,14.10
2023-04-18T12:33:23.629Z,14.00
2023-04-18T12:35:50.515Z,13.90
2023-04-18T12:38:18.124Z,13.80
2023-04-18T12:40:44.835Z,13.70
2023-04-18T12:43:11.605Z,13.60
2023-04-18T12:45:38.443Z,13.50
2023-04-18T12:48:05.395Z,13.40
2023-04-18T12:50:32.389Z,13.40
2023-04-18T12:53:00.517Z,13.40
2023-04-18T12:55:27.725Z,13.40
2023-04-18T12:57:54.899Z,13.60
2023-04-18T13:00:26.640Z,13.80
2023-04-18T13:02:53.608Z,14.00
2023-04-18T13:05:21.788Z,14.10
2023-04-18T13:07:49.818Z,14.00
2023-04-18T13:10:21.306Z,14.10
2023-04-18T13:12:48.806Z,14.00
2023-04-18T13:15:16.286Z,13.90
2023-04-18T13:17:43.745Z,13.90
2023-04-18T13:20:12.451Z,13.90
2023-04-18T13:22:40.654Z,14.00
2023-04-18T13:25:08.388Z,14.00
2023-04-18T13:27:35.546Z,14.10
2023-04-18T13:30:02.605Z,14.20
2023-04-18T13:32:29.930Z,14.20
2023-04-18T13:34:56.777Z,14.10
2023-04-18T13:37:24.271Z,14.10
2023-04-18T13:39:51.184Z,14.10
2023-04-18T13:42:19.361Z,14.10
2023-04-18T13:44:46.290Z,14.20
2023-04-18T13:47:13.554Z,14.20
2023-04-18T13:49:40.960Z,14.20
2023-04-18T13:52:08.444Z,14.20
2023-04-18T13:54:37.006Z,14.20
2023-04-18T13:57:03.940Z,14.20
2023-04-18T13:59:31.528Z,14.20
2023-04-18T14:01:58.691Z,14.20
2023-04-18T14:04:26.031Z,14.30
2023-04-18T14:06:53.629Z,14.30
2023-04-18T14:09:20.559Z,14.20
2023-04-18T14:11:47.509Z,14.20
2023-04-18T14:14:16.232Z,14.10
2023-04-18T14:16:43.443Z,14.10
2023-04-18T14:19:10.197Z,14.00
2023-04-18T14:21:39.521Z,14.00
2023-04-18T14:24:07.191Z,13.80
2023-04-18T14:26:42.970Z,13.80
2023-04-18T14:29:09.816Z,13.80
2023-04-18T14:31:37.147Z,13.90
2023-04-18T14:34:03.950Z,13.80
2023-04-18T14:36:31.877Z,13.80
2023-04-18T14:38:59.173Z,13.90
2023-04-18T14:41:26.251Z,14.00
2023-04-18T14:43:53.196Z,14.10
2023-04-18T14:46:20.748Z,14.10
2023-04-18T14:48:47.769Z,14.00
2023-04-18T14:51:17.745Z,14.10
2023-04-18T14:53:44.986Z,14.10
2023-04-18T14:56:11.822Z,14.10
2023-04-18T14:58:38.598Z,14.10
2023-04-18T15:01:05.652Z,14.10
2023-04-18T15:03:33.149Z,14.10
2023-04-18T15:06:00.257Z,14.10
2023-04-18T15:08:27.188Z,14.00
2023-04-18T15:10:54.072Z,14.10
2023-04-18T15:13:20.906Z,14.00
2023-04-18T15:15:54.535Z,14.10
2023-04-18T15:18:21.554Z,14.10
2023-04-18T15:20:48.676Z,14.20
2023-04-18T15:23:15.992Z,14.30
2023-04-18T15:25:44.127Z,14.20
2023-04-18T15:28:11.752Z,14.20
2023-04-18T15:30:39.222Z,14.10
2023-04-18T15:33:06.157Z,14.10
2023-04-18T15:35:33.218Z,14.00
2023-04-18T15:38:00.036Z,13.80
2023-04-18T15:40:27.412Z,13.70
2023-04-18T15:42:54.510Z,13.70
2023-04-18T15:45:21.881Z,13.70
2023-04-18T15:47:48.779Z,13.70
2023-04-18T15:50:18.726Z,13.70
2023-04-18T15:52:45.942Z,13.60
2023-04-18T15:55:13.274Z,13.80
2023-04-18T15:57:41.676Z,13.80
2023-04-18T16:00:12.478Z,13.80
2023-04-18T16:02:39.452Z,13.80
2023-04-18T16:05:07.432Z,13.80
2023-04-18T16:07:34.500Z,13.80
2023-04-18T16:10:04.041Z,13.80
2023-04-18T16:12:31.049Z,13.80
2023-04-18T16:14:58.207Z,13.90
2023-04-18T16:17:27.229Z,13.90
2023-04-18T16:19:54.360Z,13.90
2023-04-18T16:22:21.208Z,13.90
2023-04-18T16:24:48.034Z,13.80
2023-04-18T16:27:15.110Z,13.70
2023-04-18T16:29:41.859Z,13.70
2023-04-18T16:32:09.334Z,13.70
2023-04-18T16:34:36.099Z,13.70
2023-04-18T16:37:03.001Z,13.60
2023-04-18T16:39:29.845Z,13.60
2023-04-18T16:41:57.717Z,13.60
2023-04-18T16:44:25.267Z,13.50
2023-04-18T16:46:52.240Z,13.40
2023-04-18T16:49:20.526Z,13.30
2023-04-18T16:51:47.354Z,13.20
2023-04-18T16:54:14.443Z,13.00
2023-04-18T16:56:41.433Z,13.10
2023-04-18T16:59:10.710Z,13.10
2023-04-18T17:01:37.801Z,13.10
2023-04-18T17:04:05.162Z,13.10
2023-04-18T17:06:32.653Z,13.20
2023-04-18T17:08:59.589Z,13.20
2023-04-18T17:11:27.032Z,13.10
2023-04-18T17:13:53.872Z,13.00
2023-04-18T17:16:21.221Z,13.00
2023-04-18T17:18:48.050Z,12.90
2023-04-18T17:21:15.393Z,12.90
2023-04-18T17:23:42.639Z,12.80
2023-04-18T17:26:09.873Z,12.80
2023-04-18T17:28:36.731Z,12.70
2023-04-18T17:31:04.219Z,12.60
2023-04-18T17:33:31.526Z,12.70
2023-04-18T17:35:58.818Z,12.70
2023-04-18T17:38:26.188Z,12.70
2023-04-18T17:41:02.699Z,12.60
2023-04-18T17:43:29.664Z,12.60
2023-04-18T17:45:59.719Z,12.70
2023-04-18T17:48:26.741Z,12.70
2023-04-18T17:50:53.733Z,12.80
2023-04-18T17:53:20.881Z,12.80
2023-04-18T17:55:50.525Z,12.70
2023-04-18T17:58:18.363Z,12.70
2023-04-18T18:00:45.302Z,12.70
2023-04-18T18:03:15.755Z,12.70
2023-04-18T18:05:45.433Z,12.70
2023-04-18T18:08:12.625Z,12.60
2023-04-18T18:10:39.399Z,12.40
2023-04-18T18:13:06.738Z,12.40
2023-04-18T18:15:33.535Z,12.40
2023-04-18T18:18:01.973Z,12.40
2023-04-18T18:20:29.440Z,12.30
2023-04-18T18:22:59.529Z,12.20
2023-04-18T18:25:28.584Z,12.20
2023-04-18T18:27:55.517Z,12.30
2023-04-18T18:30:22.559Z,12.30
2023-04-18T18:32:49.671Z,12.30
2023-04-18T18:35:16.807Z,12.30
2023-04-18T18:37:43.672Z,12.20
2023-04-18T18:40:11.054Z,12.20
2023-04-18T18:42:37.907Z,12.20
2023-04-18T18:45:05.926Z,12.30
2023-04-18T18:47:34.266Z,12.20
2023-04-18T18:50:01.431Z,12.10
2023-04-18T18:52:29.982Z,11.90
2023-04-18T18:54:56.864Z,11.90
2023-04-18T18:57:23.797Z,11.80
2023-04-18T18:59:50.614Z,11.80
2023-04-18T19:02:17.626Z,11.70
2023-04-18T19:04:44.994Z,11.80
2023-04-18T19:07:11.960Z,11.80
2023-04-18T19:09:38.700Z,11.80
2023-04-18T19:12:05.950Z,11.70
2023-04-18T19:14:33.084Z,11.70
2023-04-18T19:17:00.330Z,11.70
2023-04-18T19:19:27.154Z,11.60
2023-04-18T19:21:54.327Z,11.70
2023-04-18T19:24:21.152Z,11.70
2023-04-18T19:26:48.115Z,11.70
2023-04-18T19:29:15.005Z,11.70
2023-04-18T19:31:43.710Z,11.70
2023-04-18T19:34:11.976Z,11.70
2023-04-18T19:36:39.250Z,11.60
2023-04-18T19:39:06.077Z,11.60
2023-04-18T19:41:33.250Z,11.60
2023-04-18T19:44:00.592Z,11.60
2023-04-18T19:46:27.378Z,11.60
2023-04-18T19:48:54.290Z,11.50
2023-04-18T19:51:21.139Z,11.50
2023-04-18T19:53:47.961Z,11.50
2023-04-18T19:56:15.402Z,11.40
2023-04-18T19:58:46.047Z,11.40
2023-04-18T20:01:13.513Z,11.40
2023-04-18T20:03:41.011Z,11.30
2023-04-18T20:06:08.380Z,11.30
2023-04-18T20:08:39.481Z,11.30
2023-04-18T20:11:10.486Z,11.30
2023-04-18T20:13:37.608Z,11.30
2023-04-18T20:16:05.621Z,11.30
2023-04-18T20:18:34.028Z,11.30
2023-04-18T20:21:00.907Z,11.30
2023-04-18T20:23:28.229Z,11.30
2023-04-18T20:25:55.041Z,11.20
2023-04-18T20:28:21.948Z,11.10
2023-04-18T20:30:48.873Z,11.00
2023-04-18T20:33:15.724Z,11.00
2023-04-18T20:35:44.193Z,11.00
2023-04-18T20:38:12.288Z,11.00
2023-04-18T20:40:39.843Z,11.00
2023-04-18T20:43:09.994Z,10.90
2023-04-18T20:45:42.867Z,10.80
2023-04-18T20:48:10.374Z,10.80
2023-04-18T20:50:37.182Z,10.80
2023-04-18T20:53:04.363Z,10.80
2023-04-18T20:55:31.134Z,10.90
2023-04-18T20:57:58.911Z,10.90
2023-04-18T21:00:25.972Z,10.90
2023-04-18T21:02:52.897Z,10.90
2023-04-18T21:05:19.799Z,10.90
2023-04-18T21:07:46.625Z,11.00
2023-04-18T21:10:13.543Z,10.90
2023-04-18T21:12:40.350Z,10.80
2023-04-18T21:15:07.978Z,10.80
2023-04-18T21:17:34.891Z,10.80
2023-04-18T21:20:02.118Z,10.80
2023-04-18T21:22:28.881Z,10.80
2023-04-18T21:24:56.202Z,10.80
2023-04-18T21:27:23.064Z,10.80
2023-04-18T21:29:49.908Z,10.80
2023-04-18T21:32:16.682Z,10.60
2023-04-18T21:34:43.480Z,10.50
2023-04-18T21:37:10.430Z,10.50
2023-04-18T21:39:38.230Z,10.30
2023-04-18T21:42:05.146Z,10.30
2023-04-18T21:44:31.988Z,10.20
2023-04-18T21:46:59.207Z,10.30
2023-04-18T21:49:25.959Z,10.30
2023-04-18T21:51:53.199Z,10.20
2023-04-18T21:54:19.980Z,10.20
2023-04-18T21:56:46.817Z,10.30
2023-04-18T21:59:13.595Z,10.40
2023-04-18T22:01:40.544Z,10.40
2023-04-18T22:04:07.689Z,10.40
2023-04-18T22:06:34.876Z,10.40
2023-04-18T22:09:01.632Z,10.40
2023-04-18T22:11:28.606Z,10.40
2023-04-18T22:13:58.110Z,10.40
2023-04-18T22:16:26.025Z,10.40
2023-04-18T22:18:52.919Z,10.30
2023-04-18T22:21:20.374Z,10.40
2023-04-18T22:23:47.203Z,10.40
2023-04-18T22:26:14.500Z,10.40
2023-04-18T22:28:41.554Z,10.40
2023-04-18T22:31:08.507Z,10.40
2023-04-18T22:33:35.426Z,10.40
2023-04-18T22:36:02.251Z,10.30
2023-04-18T22:38:29.367Z,10.30
2023-04-18T22:40:56.223Z,10.30
2023-04-18T22:43:24.383Z,10.30
2023-04-18T22:45:51.560Z,10.30
2023-04-18T22:48:18.914Z,10.30
2023-04-18T22:50:46.456Z,10.30
2023-04-18T22:53:14.489Z,10.20
2023-04-18T22:55:41.892Z,10.20
2023-04-18T22:58:09.034Z,10.20
2023-04-18T23:00:35.918Z,10.20
2023-04-18T23:03:03.187Z,10.10
2023-04-18T23:05:30.311Z,10.10
2023-04-18T23:07:59.582Z,10.10
2023-04-18T23:10:27.690Z,10.10
2023-04-18T23:12:54.593Z,10.20
2023-04-18T23:15:23.024Z,10.10
2023-04-18T23:17:54.809Z,10.20
2023-04-18T23:20:21.861Z,10.10
2023-04-18T23:22:51.521Z,10.20
2023-04-18T23:25:19.544Z,10.10
2023-04-18T23:27:47.237Z,10.10
2023-04-18T23:30:14.131Z,10.10
2023-04-18T23:32:41.008Z,10.10
2023-04-18T23:35:08.150Z,10.20
2023-04-18T23:37:35.019Z,10.10
2023-04-18T23:40:02.530Z,10.10
2023-04-18T23:42:29.368Z,10.20
2023-04-18T23:44:57.757Z,10.10
2023-04-18T23:47:24.937Z,10.10
2023-04-18T23:49:51.740Z,10.10
2023-04-18T23:52:18.983Z,10.10
2023-04-18T23:54:45.834Z,10.10
2023-04-18T23:57:12.644Z,10.10
2023-04-18T23:59:39.412Z,10.10
